createdAt,value
2023-03-01T00:01:06.452Z,67.80
2023-03-01T00:03:35.550Z,67.60
2023-03-01T00:06:05.543Z,67.83
2023-03-01T00:08:34.053Z,67.63
2023-03-01T00:11:03.174Z,67.43
2023-03-01T00:13:30.593Z,67.67
2023-03-01T00:15:57.812Z,67.43
2023-03-01T00:18:25.745Z,67.48
2023-03-01T00:20:55.546Z,67.33
2023-03-01T00:23:24.173Z,67.26
2023-03-01T00:25:51.937Z,67.58
2023-03-01T00:28:20.222Z,67.35
2023-03-01T00:30:47.758Z,67.29
2023-03-01T00:33:15.135Z,67.26
2023-03-01T00:35:42.563Z,67.44
2023-03-01T00:38:11.487Z,67.28
2023-03-01T00:40:38.963Z,67.55
2023-03-01T00:43:06.950Z,67.29
2023-03-01T00:45:34.524Z,67.61
2023-03-01T00:48:02.150Z,66.89
2023-03-01T00:50:30.480Z,67.63
2023-03-01T00:52:57.945Z,67.49
2023-03-01T00:55:27.182Z,67.51
2023-03-01T00:57:54.588Z,67.71
2023-03-01T01:00:22.228Z,67.50
2023-03-01T01:02:50.126Z,67.86
2023-03-01T01:05:21.910Z,67.88
2023-03-01T01:07:49.612Z,67.70
2023-03-01T01:10:22.066Z,67.86
2023-03-01T01:12:50.714Z,68.06
2023-03-01T01:15:18.080Z,68.08
2023-03-01T01:17:45.322Z,68.22
2023-03-01T01:20:13.674Z,68.19
2023-03-01T01:22:40.993Z,68.13
2023-03-01T01:25:09.489Z,67.98
2023-03-01T01:27:36.845Z,68.11
2023-03-01T01:30:06.863Z,67.93
2023-03-01T01:32:34.689Z,68.26
2023-03-01T01:35:02.134Z,68.31
2023-03-01T01:37:34.440Z,68.39
2023-03-01T01:40:04.751Z,68.21
2023-03-01T01:42:32.119Z,68.12
2023-03-01T01:45:31.608Z,68.30
2023-03-01T01:48:01.918Z,68.50
2023-03-01T01:50:38.801Z,68.13
2023-03-01T01:53:10.740Z,68.43
2023-03-01T01:55:40.934Z,68.44
2023-03-01T01:58:13.030Z,68.26
2023-03-01T02:00:41.761Z,68.52
2023-03-01T02:03:12.910Z,68.41
2023-03-01T02:05:54.761Z,68.32
2023-03-01T02:08:26.147Z,68.64
2023-03-01T02:10:55.917Z,68.58
2023-03-01T02:13:23.341Z,68.71
2023-03-01T02:15:52.300Z,68.81
2023-03-01T02:18:25.070Z,69.21
2023-03-01T02:21:09.662Z,69.08
2023-03-01T02:23:37.786Z,69.32
2023-03-01T02:26:09.079Z,69.19
2023-03-01T02:28:40.036Z,69.33
2023-03-01T02:31:28.147Z,69.47
2023-03-01T02:33:57.898Z,69.82
2023-03-01T02:36:30.321Z,69.90
2023-03-01T02:39:00.239Z,69.85
2023-03-01T02:41:32.173Z,69.96
2023-03-01T02:44:01.371Z,69.72
2023-03-01T02:46:30.767Z,69.99
2023-03-01T02:48:59.947Z,69.62
2023-03-01T02:51:45.141Z,70.19
2023-03-01T02:54:21.788Z,70.26
2023-03-01T02:56:49.993Z,70.06
2023-03-01T02:59:23.592Z,70.37
2023-03-01T03:01:51.391Z,70.44
2023-03-01T03:04:20.188Z,70.62
2023-03-01T03:06:50.610Z,70.85
2023-03-01T03:09:19.745Z,70.56
2023-03-01T03:11:48.052Z,70.49
2023-03-01T03:14:17.355Z,70.95
2023-03-01T03:16:50.924Z,70.91
2023-03-01T03:19:19.188Z,70.91
2023-03-01T03:21:46.968Z,70.86
2023-03-01T03:24:14.335Z,71.08
2023-03-01T03:26:41.961Z,71.06
2023-03-01T03:29:09.252Z,71.35
2023-03-01T03:31:36.600Z,71.51
2023-03-01T03:34:05.320Z,71.54
2023-03-01T03:36:32.795Z,71.58
2023-03-01T03:39:00.376Z,71.95
2023-03-01T03:41:27.682Z,71.67
2023-03-01T03:43:54.925Z,71.87
2023-03-01T03:46:22.319Z,71.88
2023-03-01T03:48:50.552Z,71.85
2023-03-01T03:51:20.168Z,71.71
2023-03-01T03:53:47.436Z,72.08
2023-03-01T03:56:15.095Z,72.31
2023-03-01T03:58:42.450Z,72.43
2023-03-01T04:01:10.196Z,71.99
2023-03-01T04:03:37.401Z,72.57
2023-03-01T04:06:05.457Z,72.56
2023-03-01T04:08:34.506Z,72.81
2023-03-01T04:11:24.729Z,72.70
2023-03-01T04:13:53.593Z,72.84
2023-03-01T04:16:21.241Z,72.79
2023-03-01T04:18:48.816Z,72.75
2023-03-01T04:21:16.407Z,72.67
2023-03-01T04:23:45.074Z,72.83
2023-03-01T04:26:12.547Z,73.27
2023-03-01T04:28:41.600Z,72.65
2023-03-01T04:31:14.598Z,73.18
2023-03-01T04:33:42.836Z,73.01
2023-03-01T04:36:11.268Z,72.79
2023-03-01T04:38:39.909Z,73.02
2023-03-01T04:41:10.961Z,73.55
2023-03-01T04:43:39.196Z,73.56
2023-03-01T04:46:10.360Z,73.79
2023-03-01T04:48:39.279Z,73.89
2023-03-01T04:51:07.088Z,73.60
2023-03-01T04:53:34.739Z,73.27
2023-03-01T04:56:02.006Z,73.40
2023-03-01T04:58:30.736Z,73.89
2023-03-01T05:00:58.484Z,73.33
2023-03-01T05:03:26.452Z,73.64
2023-03-01T05:05:54.105Z,73.64
2023-03-01T05:08:21.842Z,73.47
2023-03-01T05:10:51.130Z,73.65
2023-03-01T05:13:22.131Z,73.42
2023-03-01T05:15:56.064Z,73.68
2023-03-01T05:18:27.136Z,73.68
2023-03-01T05:20:57.371Z,73.55
2023-03-01T05:23:24.645Z,73.66
2023-03-01T05:25:53.438Z,73.71
2023-03-01T05:28:21.117Z,73.83
2023-03-01T05:30:48.639Z,73.82
2023-03-01T05:33:17.321Z,73.84
2023-03-01T05:35:45.821Z,73.74
2023-03-01T05:38:17.192Z,73.57
2023-03-01T05:40:47.409Z,73.72
2023-03-01T05:43:16.460Z,73.80
2023-03-01T05:45:44.408Z,73.58
2023-03-01T05:48:13.470Z,73.64
2023-03-01T05:50:43.940Z,73.54
2023-03-01T05:53:13.006Z,73.02
2023-03-01T05:55:41.236Z,73.22
2023-03-01T05:58:12.623Z,73.64
2023-03-01T06:00:40.611Z,73.06
2023-03-01T06:03:07.957Z,72.95
2023-03-01T06:05:35.191Z,72.89
2023-03-01T06:08:04.526Z,72.86
2023-03-01T06:10:31.774Z,72.66
2023-03-01T06:12:59.406Z,72.68
2023-03-01T06:15:27.527Z,72.69
2023-03-01T06:17:59.957Z,72.86
2023-03-01T06:20:29.624Z,73.00
2023-03-01T06:22:57.326Z,72.88
2023-03-01T06:25:27.418Z,72.93
2023-03-01T06:27:55.411Z,72.75
2023-03-01T06:30:25.161Z,72.81
2023-03-01T06:32:52.742Z,72.70
2023-03-01T06:35:20.622Z,72.82
2023-03-01T06:37:49.047Z,72.60
2023-03-01T06:40:16.657Z,72.63
2023-03-01T06:42:52.382Z,72.54
2023-03-01T06:45:21.728Z,72.32
2023-03-01T06:47:49.290Z,72.23
2023-03-01T06:50:18.237Z,72.05
2023-03-01T06:55:14.505Z,71.42
2023-03-01T06:57:42.059Z,71.01
2023-03-01T07:00:13.240Z,70.72
2023-03-01T07:02:40.858Z,70.17
2023-03-01T07:05:08.782Z,70.17
2023-03-01T07:07:36.358Z,70.33
2023-03-01T07:10:04.191Z,69.76
2023-03-01T07:12:31.542Z,70.16
2023-03-01T07:14:58.986Z,69.89
2023-03-01T07:17:27.821Z,69.37
2023-03-01T07:19:55.214Z,68.62
2023-03-01T07:22:22.699Z,68.86
2023-03-01T07:24:50.102Z,68.08
2023-03-01T07:27:17.363Z,67.67
2023-03-01T07:29:44.712Z,67.95
2023-03-01T07:32:12.832Z,67.90
2023-03-01T07:34:41.608Z,67.98
2023-03-01T07:37:09.137Z,68.07
2023-03-01T07:39:36.513Z,67.66
2023-03-01T07:42:03.935Z,67.70
2023-03-01T07:44:31.144Z,67.41
2023-03-01T07:46:59.321Z,67.08
2023-03-01T07:49:27.644Z,66.06
2023-03-01T07:51:56.368Z,66.09
2023-03-01T07:54:23.623Z,65.95
2023-03-01T07:56:50.894Z,65.13
2023-03-01T07:59:18.077Z,65.18
2023-03-01T08:01:45.394Z,65.06
2023-03-01T08:04:12.779Z,65.41
2023-03-01T08:06:40.200Z,64.87
2023-03-01T08:09:09.587Z,64.58
2023-03-01T08:11:37.075Z,64.54
2023-03-01T08:14:05.000Z,64.45
2023-03-01T08:16:34.579Z,63.96
2023-03-01T08:19:05.720Z,64.05
2023-03-01T08:21:35.817Z,63.25
2023-03-01T08:24:03.755Z,62.98
2023-03-01T08:26:33.376Z,62.99
2023-03-01T08:29:01.588Z,62.58
2023-03-01T08:31:31.361Z,63.02
2023-03-01T08:34:01.059Z,62.34
2023-03-01T08:36:30.761Z,62.07
2023-03-01T08:38:58.623Z,62.33
2023-03-01T08:41:26.175Z,62.25
2023-03-01T08:43:59.727Z,62.09
2023-03-01T08:46:27.973Z,62.57
2023-03-01T08:48:55.350Z,63.00
2023-03-01T08:51:23.428Z,63.03
2023-03-01T08:53:50.675Z,63.20
2023-03-01T08:56:19.533Z,63.13
2023-03-01T08:58:47.923Z,62.82
2023-03-01T09:01:18.909Z,62.76
2023-03-01T09:03:46.886Z,63.17
2023-03-01T09:06:15.138Z,63.89
2023-03-01T09:08:44.570Z,63.75
2023-03-01T09:11:16.396Z,63.74
2023-03-01T09:13:44.451Z,63.42
2023-03-01T09:16:13.804Z,63.53
2023-03-01T09:18:42.915Z,63.37
2023-03-01T09:21:13.119Z,63.49
2023-03-01T09:23:42.793Z,63.89
2023-03-01T09:26:12.757Z,64.11
2023-03-01T09:28:41.966Z,63.49
2023-03-01T09:31:09.634Z,62.86
2023-03-01T09:33:37.063Z,63.19
2023-03-01T09:36:08.881Z,63.17
2023-03-01T09:38:36.244Z,63.19
2023-03-01T09:41:03.886Z,63.05
2023-03-01T09:43:41.513Z,63.16
2023-03-01T09:46:12.815Z,63.30
2023-03-01T09:48:44.344Z,63.67
2023-03-01T09:51:18.670Z,63.66
2023-03-01T09:53:45.980Z,63.41
2023-03-01T09:56:22.509Z,63.32
2023-03-01T09:58:54.334Z,62.80
2023-03-01T10:01:33.976Z,63.31
2023-03-01T10:04:18.347Z,63.27
2023-03-01T10:06:59.379Z,63.10
2023-03-01T10:09:28.728Z,62.35
2023-03-01T10:11:57.732Z,61.95
2023-03-01T10:14:39.146Z,63.05
2023-03-01T10:17:14.054Z,62.83
2023-03-01T10:19:46.681Z,63.06
2023-03-01T10:22:19.257Z,64.00
2023-03-01T10:24:47.818Z,64.54
2023-03-01T10:27:20.697Z,64.14
2023-03-01T10:29:55.479Z,64.24
2023-03-01T10:32:25.061Z,64.61
2023-03-01T10:34:52.514Z,64.78
2023-03-01T10:37:27.035Z,65.23
2023-03-01T10:39:59.593Z,64.68
2023-03-01T10:42:30.366Z,65.32
2023-03-01T10:44:58.128Z,65.67
2023-03-01T10:47:27.460Z,64.79
2023-03-01T10:50:00.054Z,65.85
2023-03-01T10:52:32.743Z,65.11
2023-03-01T10:55:02.649Z,65.76
2023-03-01T10:57:42.094Z,66.05
2023-03-01T11:00:23.481Z,65.88
2023-03-01T11:03:11.541Z,65.59
2023-03-01T11:05:52.662Z,65.26
2023-03-01T11:08:35.075Z,65.97
2023-03-01T11:11:23.276Z,65.57
2023-03-01T11:13:59.027Z,64.88
2023-03-01T11:16:33.585Z,64.71
2023-03-01T11:19:18.659Z,65.50
2023-03-01T11:21:56.905Z,65.27
2023-03-01T11:24:35.121Z,65.97
2023-03-01T11:27:10.182Z,64.60
2023-03-01T11:29:48.535Z,65.49
2023-03-01T11:32:16.908Z,65.60
2023-03-01T11:34:50.294Z,64.69
2023-03-01T11:37:29.900Z,65.61
2023-03-01T11:40:11.796Z,65.86
2023-03-01T11:42:51.768Z,64.91
2023-03-01T11:45:24.055Z,65.17
2023-03-01T11:48:16.849Z,65.94
2023-03-01T11:50:45.898Z,65.75
2023-03-01T11:53:29.278Z,65.87
2023-03-01T11:56:10.421Z,65.66
2023-03-01T11:58:54.612Z,64.77
2023-03-01T12:01:50.159Z,64.37
2023-03-01T12:04:37.986Z,64.92
2023-03-01T12:07:12.104Z,65.04
2023-03-01T12:10:03.175Z,65.63
2023-03-01T12:12:48.992Z,65.03
2023-03-01T12:15:34.826Z,65.39
2023-03-01T12:18:21.845Z,65.78
2023-03-01T12:21:00.929Z,66.11
2023-03-01T12:24:03.858Z,65.68
2023-03-01T12:26:33.610Z,65.42
2023-03-01T12:29:20.654Z,64.30
2023-03-01T12:32:12.250Z,63.49
2023-03-01T12:35:04.874Z,64.38
2023-03-01T12:37:44.650Z,64.42
2023-03-01T12:40:25.783Z,64.24
2023-03-01T12:43:04.508Z,64.52
2023-03-01T12:45:49.204Z,65.12
2023-03-01T12:48:28.982Z,64.76
2023-03-01T12:51:00.967Z,64.99
2023-03-01T12:53:33.518Z,65.90
2023-03-01T12:56:06.020Z,65.21
2023-03-01T12:58:48.738Z,65.92
2023-03-01T13:01:28.851Z,66.08
2023-03-01T13:04:15.934Z,66.44
2023-03-01T13:06:51.694Z,66.27
2023-03-01T13:09:31.861Z,66.34
2023-03-01T13:11:59.177Z,66.07
2023-03-01T13:14:46.807Z,66.23
2023-03-01T13:17:44.600Z,66.47
2023-03-01T13:20:16.135Z,66.84
2023-03-01T13:22:54.336Z,66.70
2023-03-01T13:25:24.311Z,66.87
2023-03-01T13:28:32.066Z,66.61
2023-03-01T13:31:00.130Z,66.61
2023-03-01T13:33:47.860Z,67.03
2023-03-01T13:36:47.415Z,67.04
2023-03-01T13:39:33.697Z,67.76
2023-03-01T13:42:01.945Z,67.51
2023-03-01T13:44:33.480Z,66.94
2023-03-01T13:47:15.083Z,66.98
2023-03-01T13:49:48.301Z,66.90
2023-03-01T13:52:38.955Z,67.74
2023-03-01T13:55:18.426Z,67.93
2023-03-01T13:57:48.740Z,68.12
2023-03-01T14:00:31.949Z,67.43
2023-03-01T14:03:06.555Z,67.79
2023-03-01T14:05:37.148Z,67.20
2023-03-01T14:08:05.209Z,67.21
2023-03-01T14:10:49.512Z,67.55
2023-03-01T14:13:31.225Z,67.19
2023-03-01T14:16:13.489Z,66.99
2023-03-01T14:18:49.587Z,68.08
2023-03-01T14:21:18.406Z,68.50
2023-03-01T14:23:47.871Z,67.92
2023-03-01T14:26:21.091Z,68.22
2023-03-01T14:28:52.504Z,68.70
2023-03-01T14:31:52.196Z,67.88
2023-03-01T14:34:22.408Z,67.75
2023-03-01T14:36:51.344Z,67.74
2023-03-01T14:39:21.086Z,67.69
2023-03-01T14:41:48.654Z,68.00
2023-03-01T14:44:20.820Z,68.12
2023-03-01T14:46:48.284Z,67.58
2023-03-01T14:49:18.450Z,67.90
2023-03-01T14:51:54.509Z,68.40
2023-03-01T14:54:26.046Z,68.27
2023-03-01T14:56:54.893Z,69.27
2023-03-01T14:59:24.830Z,69.61
2023-03-01T15:01:54.682Z,69.58
2023-03-01T15:04:24.042Z,69.98
2023-03-01T15:06:54.310Z,69.76
2023-03-01T15:09:23.207Z,69.82
2023-03-01T15:11:50.641Z,70.12
2023-03-01T15:14:41.314Z,70.55
2023-03-01T15:17:25.151Z,70.44
2023-03-01T15:19:52.729Z,70.66
2023-03-01T15:22:23.070Z,70.88
2023-03-01T15:24:51.244Z,71.53
2023-03-01T15:27:20.728Z,71.79
2023-03-01T15:29:53.055Z,72.27
2023-03-01T15:32:29.680Z,72.49
2023-03-01T15:34:58.113Z,72.39
2023-03-01T15:37:45.143Z,72.88
2023-03-01T15:40:25.867Z,72.33
2023-03-01T15:42:53.308Z,72.39
2023-03-01T15:45:28.288Z,72.56
2023-03-01T15:48:02.981Z,73.02
2023-03-01T15:50:34.118Z,72.95
2023-03-01T15:53:12.214Z,73.16
2023-03-01T15:55:39.616Z,73.28
2023-03-01T15:58:11.732Z,73.51
2023-03-01T16:00:46.270Z,73.81
2023-03-01T16:03:25.173Z,73.42
2023-03-01T16:05:52.980Z,74.06
2023-03-01T16:08:21.928Z,73.80
2023-03-01T16:10:51.100Z,73.44
2023-03-01T16:13:18.863Z,73.75
2023-03-01T16:15:46.154Z,74.26
2023-03-01T16:18:13.769Z,73.98
2023-03-01T16:20:41.287Z,74.20
2023-03-01T16:23:11.678Z,74.94
2023-03-01T16:25:40.517Z,74.28
2023-03-01T16:28:11.446Z,74.52
2023-03-01T16:30:40.834Z,74.48
2023-03-01T16:33:29.682Z,74.98
2023-03-01T16:35:57.198Z,75.40
2023-03-01T16:38:24.562Z,74.80
2023-03-01T16:40:53.754Z,75.79
2023-03-01T16:43:21.192Z,75.63
2023-03-01T16:45:48.534Z,75.49
2023-03-01T16:48:16.142Z,75.81
2023-03-01T16:50:43.497Z,76.02
2023-03-01T16:53:11.092Z,76.09
2023-03-01T16:55:39.033Z,76.27
2023-03-01T16:58:07.896Z,75.87
2023-03-01T17:00:35.216Z,75.93
2023-03-01T17:03:02.597Z,75.64
2023-03-01T17:05:29.830Z,75.41
2023-03-01T17:07:58.273Z,75.97
2023-03-01T17:10:25.794Z,75.93
2023-03-01T17:12:53.246Z,75.79
2023-03-01T17:15:22.002Z,75.81
2023-03-01T17:17:52.131Z,75.62
2023-03-01T17:20:19.592Z,75.78
2023-03-01T17:22:46.882Z,75.89
2023-03-01T17:25:14.519Z,75.52
2023-03-01T17:27:41.960Z,75.71
2023-03-01T17:30:11.263Z,76.27
2023-03-01T17:32:41.063Z,75.82
2023-03-01T17:35:11.701Z,75.89
2023-03-01T17:37:39.965Z,76.31
2023-03-01T17:40:08.501Z,75.79
2023-03-01T17:42:36.151Z,76.28
2023-03-01T17:45:04.019Z,76.48
2023-03-01T17:47:31.848Z,76.67
2023-03-01T17:50:00.705Z,76.53
2023-03-01T17:52:28.020Z,76.46
2023-03-01T17:54:55.319Z,76.74
2023-03-01T17:57:22.847Z,76.57
2023-03-01T17:59:50.109Z,76.80
2023-03-01T18:02:19.235Z,76.72
2023-03-01T18:04:46.633Z,76.62
2023-03-01T18:07:15.367Z,76.69
2023-03-01T18:09:42.622Z,76.80
2023-03-01T18:12:10.861Z,77.19
2023-03-01T18:14:38.472Z,77.31
2023-03-01T18:17:11.869Z,76.87
2023-03-01T18:19:41.319Z,76.71
2023-03-01T18:22:11.175Z,77.04
2023-03-01T18:24:39.996Z,77.00
2023-03-01T18:27:07.964Z,76.91
2023-03-01T18:29:37.165Z,76.98
2023-03-01T18:32:05.678Z,76.89
2023-03-01T18:34:34.937Z,77.27
2023-03-01T18:37:09.470Z,77.11
2023-03-01T18:39:37.276Z,76.89
2023-03-01T18:42:06.269Z,77.07
2023-03-01T18:44:33.762Z,77.30
2023-03-01T18:47:01.452Z,77.14
2023-03-01T18:49:28.785Z,77.28
2023-03-01T18:51:56.808Z,77.37
2023-03-01T18:54:24.464Z,77.36
2023-03-01T18:56:51.977Z,77.15
2023-03-01T18:59:20.885Z,77.73
2023-03-01T19:01:48.531Z,77.47
2023-03-01T19:04:15.983Z,77.43
2023-03-01T19:06:43.324Z,77.22
2023-03-01T19:09:11.598Z,77.22
2023-03-01T19:11:38.949Z,77.86
2023-03-01T19:14:06.395Z,77.87
2023-03-01T19:16:36.037Z,77.75
2023-03-01T19:19:06.161Z,77.22
2023-03-01T19:21:34.227Z,78.18
2023-03-01T19:24:02.832Z,78.10
2023-03-01T19:26:31.438Z,78.21
2023-03-01T19:28:59.274Z,78.08
2023-03-01T19:31:28.816Z,77.56
2023-03-01T19:34:11.441Z,77.79
2023-03-01T19:36:39.844Z,77.89
2023-03-01T19:39:07.404Z,77.71
2023-03-01T19:41:34.946Z,77.79
2023-03-01T19:44:04.754Z,78.18
2023-03-01T19:46:33.324Z,78.28
2023-03-01T19:49:03.684Z,78.07
2023-03-01T19:51:36.740Z,77.83
2023-03-01T19:54:06.190Z,78.02
2023-03-01T19:56:34.868Z,77.61
2023-03-01T19:59:04.670Z,77.88
2023-03-01T20:01:34.709Z,78.30
2023-03-01T20:04:04.968Z,78.40
2023-03-01T20:06:32.759Z,78.24
2023-03-01T20:09:09.053Z,78.58
2023-03-01T20:11:43.460Z,78.12
2023-03-01T20:14:12.411Z,78.04
2023-03-01T20:16:40.245Z,78.33
2023-03-01T20:19:09.291Z,78.32
2023-03-01T20:21:37.061Z,78.34
2023-03-01T20:24:05.152Z,78.53
2023-03-01T20:26:33.439Z,78.83
2023-03-01T20:29:00.894Z,78.57
2023-03-01T20:31:29.918Z,78.96
2023-03-01T20:33:58.939Z,78.85
2023-03-01T20:36:28.048Z,78.80
2023-03-01T20:38:55.793Z,78.89
2023-03-01T20:41:26.152Z,78.96
2023-03-01T20:43:58.747Z,78.61
2023-03-01T20:46:27.135Z,79.27
2023-03-01T20:48:54.757Z,79.23
2023-03-01T20:51:22.255Z,78.84
2023-03-01T20:53:51.084Z,78.97
2023-03-01T20:56:19.994Z,79.12
2023-03-01T20:59:04.429Z,79.33
2023-03-01T21:01:31.975Z,79.88
2023-03-01T21:03:59.318Z,79.98
2023-03-01T21:06:26.747Z,79.49
2023-03-01T21:08:56.490Z,79.84
2023-03-01T21:11:25.513Z,79.94
2023-03-01T21:13:52.988Z,80.44
2023-03-01T21:16:21.050Z,80.22
2023-03-01T21:18:49.081Z,80.61
2023-03-01T21:21:18.699Z,80.61
2023-03-01T21:23:47.002Z,80.70
2023-03-01T21:26:19.481Z,80.51
2023-03-01T21:28:47.957Z,81.33
2023-03-01T21:31:17.318Z,80.65
2023-03-01T21:33:47.559Z,81.23
2023-03-01T21:36:15.767Z,81.44
2023-03-01T21:38:44.519Z,81.60
2023-03-01T21:41:16.316Z,81.58
2023-03-01T21:43:45.602Z,81.85
2023-03-01T21:46:15.732Z,81.74
2023-03-01T21:48:45.293Z,81.77
2023-03-01T21:51:15.214Z,82.40
2023-03-01T21:53:42.770Z,81.76
2023-03-01T21:56:15.257Z,81.90
2023-03-01T21:58:44.199Z,82.34
2023-03-01T22:01:14.200Z,82.24
2023-03-01T22:03:47.199Z,82.27
2023-03-01T22:06:29.809Z,82.27
2023-03-01T22:08:58.746Z,82.63
2023-03-01T22:11:27.834Z,82.78
2023-03-01T22:13:56.765Z,82.58
2023-03-01T22:16:26.526Z,82.90
2023-03-01T22:18:54.013Z,82.61
2023-03-01T22:21:23.197Z,82.55
2023-03-01T22:23:51.515Z,82.72
2023-03-01T22:26:24.592Z,82.49
2023-03-01T22:28:52.265Z,82.85
2023-03-01T22:31:21.459Z,82.89
2023-03-01T22:33:49.029Z,82.66
2023-03-01T22:36:16.483Z,82.65
2023-03-01T22:38:44.085Z,82.71
2023-03-01T22:41:11.457Z,82.87
2023-03-01T22:43:39.402Z,83.21
2023-03-01T22:46:11.693Z,82.93
2023-03-01T22:48:40.670Z,83.35
2023-03-01T22:51:10.258Z,83.23
2023-03-01T22:53:37.766Z,83.25
2023-03-01T22:56:13.550Z,83.23
2023-03-01T22:58:40.967Z,83.47
2023-03-01T23:01:13.129Z,83.43
2023-03-01T23:03:41.990Z,83.22
2023-03-01T23:06:10.491Z,83.25
2023-03-01T23:08:37.916Z,83.44
2023-03-01T23:11:10.656Z,83.22
2023-03-01T23:13:37.865Z,83.45
2023-03-01T23:16:06.686Z,83.20
2023-03-01T23:18:34.130Z,83.54
2023-03-01T23:21:08.101Z,83.73
2023-03-01T23:23:35.494Z,83.53
2023-03-01T23:26:02.951Z,83.72
2023-03-01T23:28:30.381Z,83.71
2023-03-01T23:30:58.820Z,83.99
2023-03-01T23:33:27.408Z,83.88
2023-03-01T23:35:55.251Z,83.90
2023-03-01T23:38:24.278Z,83.86
2023-03-01T23:40:51.641Z,84.20
2023-03-01T23:43:19.168Z,84.28
2023-03-01T23:45:46.545Z,83.89
2023-03-01T23:48:14.150Z,83.72
2023-03-01T23:50:44.344Z,84.11
2023-03-01T23:53:14.105Z,83.92
2023-03-01T23:55:46.141Z,84.05
2023-03-01T23:58:13.977Z,83.86
